Northboro, Massachusetts
Current Conditions -  °F | °C
As of 1:54 PM on Sunday 23 Nov 2014 (Local Time) from KORH Reporting Station
Overcast Overcast  
Wind Chill: 54°   Ceiling: 5000
Heat Index: 54°   Visibility: 10mi
Dew Point: 37°   Wind: 10mph
Humidity: 53%   Direction: 260°W
Pressure: 30.11"   Gusts: NA
Location:  42.3229°N, 71.6469°W
Report Text: KORH 231854Z 26009KT 10SM OVC050 12/03 A3011 RMK AO2 SLP202 T01220028 $
Loading
Personal Weather Stations






























Interactive Weather Map New forecast layout! Learn more

10-Day Weather Forecast

Advertisements
Track Severe Weather on mobile